Time;durP1;ratioP1;P1;durP2;ratioP2;P2;SDS_P1;SDS_P2;PMS_P1;PMS_P2;Temp;Humidity;BMP_temperature;BMP_pressure;BME280_temperature;BME280_humidity;BME280_pressure;Samples;Min_cycle;Max_cycle;Signal;HPM_P1;HPM_P2
2022/11/23 00:01:20;;;;;;;12.43;9.27;;;;;;;;;;4979605;28;20197;-88
2022/11/23 00:03:48;;;;;;;14.83;9.20;;;;;;;;;;4979642;28;20186;-88
2022/11/23 00:06:20;;;;;;;16.27;9.67;;;;;;;;;;4979526;28;20229;-88
2022/11/23 00:08:46;;;;;;;14.97;9.80;;;;;;;;;;4978876;28;20189;-88
2022/11/23 00:11:15;;;;;;;17.87;10.30;;;;;;;;;;4966948;28;20191;-88
2022/11/23 00:13:41;;;;;;;15.17;9.63;;;;;;;;;;4979203;28;20182;-88
2022/11/23 00:16:10;;;;;;;18.97;10.27;;;;;;;;;;4979161;28;20190;-88
2022/11/23 00:18:39;;;;;;;13.23;9.77;;;;;;;;;;4979106;28;20273;-88
2022/11/23 00:21:09;;;;;;;14.97;9.93;;;;;;;;;;4946557;28;20294;-87
2022/11/23 00:23:38;;;;;;;15.73;9.80;;;;;;;;;;4995309;28;20229;-87
2022/11/23 00:26:05;;;;;;;15.90;10.17;;;;;;;;;;4980017;28;20201;-88
2022/11/23 00:28:36;;;;;;;17.67;9.93;;;;;;;;;;4979054;28;20186;-89
2022/11/23 00:31:02;;;;;;;17.17;10.73;;;;;;;;;;4979036;28;20189;-88
2022/11/23 00:33:28;;;;;;;22.70;10.63;;;;;;;;;;4972917;28;20187;-88
2022/11/23 00:36:01;;;;;;;19.10;10.70;;;;;;;;;;4975530;28;20190;-87
2022/11/23 00:38:28;;;;;;;15.70;9.90;;;;;;;;;;4994646;28;20249;-87
2022/11/23 00:41:01;;;;;;;15.73;10.03;;;;;;;;;;4973822;28;20210;-87
2022/11/23 00:43:35;;;;;;;16.40;10.20;;;;;;;;;;4978601;28;20245;-87
2022/11/23 00:46:01;;;;;;;14.07;10.23;;;;;;;;;;4974362;28;20277;-87
2022/11/23 00:48:33;;;;;;;16.30;10.50;;;;;;;;;;4978350;28;20186;-88
2022/11/23 00:51:00;;;;;;;18.33;10.10;;;;;;;;;;4978217;28;20193;-88
2022/11/23 00:53:29;;;;;;;18.37;9.87;;;;;;;;;;4978050;28;20181;-88
2022/11/23 00:55:55;;;;;;;17.13;10.17;;;;;;;;;;4977908;28;20273;-87
2022/11/23 00:58:25;;;;;;;16.57;10.10;;;;;;;;;;4978773;28;20268;-88
2022/11/23 01:01:11;;;;;;;16.13;10.57;;;;;;;;;;4978508;28;20186;-88
2022/11/23 01:03:54;;;;;;;14.77;9.90;;;;;;;;;;4976659;28;20186;-88
2022/11/23 01:06:25;;;;;;;18.30;9.83;;;;;;;;;;4977565;28;20229;-88
2022/11/23 01:08:52;;;;;;;17.77;10.30;;;;;;;;;;4977809;28;20245;-88
2022/11/23 01:11:25;;;;;;;17.10;9.87;;;;;;;;;;4978087;28;20191;-88
2022/11/23 01:13:51;;;;;;;19.10;9.77;;;;;;;;;;4978007;28;20205;-88
2022/11/23 01:16:18;;;;;;;18.00;9.90;;;;;;;;;;4978096;28;20189;-89
2022/11/23 01:18:47;;;;;;;21.87;9.50;;;;;;;;;;4978451;28;20190;-88
2022/11/23 01:21:13;;;;;;;16.67;9.33;;;;;;;;;;4977996;28;20351;-88
2022/11/23 01:23:41;;;;;;;17.07;8.80;;;;;;;;;;4975525;28;20186;-88
2022/11/23 01:26:11;;;;;;;14.80;8.80;;;;;;;;;;4977862;28;20281;-88
2022/11/23 01:28:38;;;;;;;18.57;8.70;;;;;;;;;;4977587;28;20233;-87
2022/11/23 01:31:14;;;;;;;12.23;8.37;;;;;;;;;;4962122;28;20182;-88
2022/11/23 01:33:43;;;;;;;16.03;8.00;;;;;;;;;;4991402;28;20186;-88
2022/11/23 01:36:10;;;;;;;18.73;8.13;;;;;;;;;;4977603;28;20215;-89
2022/11/23 01:38:37;;;;;;;17.40;8.37;;;;;;;;;;4979048;28;20204;-88
2022/11/23 01:41:06;;;;;;;17.50;8.73;;;;;;;;;;4978074;28;20201;-88
2022/11/23 01:43:32;;;;;;;16.07;7.60;;;;;;;;;;4978006;28;20182;-89
2022/11/23 01:46:00;;;;;;;17.87;7.70;;;;;;;;;;4977420;28;20186;-88
2022/11/23 01:48:32;;;;;;;15.10;7.03;;;;;;;;;;4977485;28;20228;-88
2022/11/23 01:50:58;;;;;;;15.33;7.53;;;;;;;;;;4977813;28;20190;-88
2022/11/23 01:53:27;;;;;;;17.80;7.80;;;;;;;;;;4981255;28;20178;-88
2022/11/23 01:55:54;;;;;;;16.20;7.67;;;;;;;;;;4974437;28;20186;-89
2022/11/23 01:58:25;;;;;;;16.60;6.87;;;;;;;;;;4969290;28;20186;-88
2022/11/23 02:00:54;;;;;;;16.10;6.83;;;;;;;;;;4980725;28;20281;-88
2022/11/23 02:03:21;;;;;;;14.17;6.87;;;;;;;;;;4984286;28;20181;-88
2022/11/23 02:05:53;;;;;;;16.37;6.73;;;;;;;;;;4973856;28;20244;-89
2022/11/23 02:08:20;;;;;;;15.33;6.60;;;;;;;;;;4978651;28;20192;-89
2022/11/23 02:10:49;;;;;;;14.10;6.23;;;;;;;;;;4987484;28;20186;-89
2022/11/23 02:13:17;;;;;;;12.17;6.03;;;;;;;;;;4991102;28;20257;-89
2022/11/23 02:15:46;;;;;;;17.37;5.80;;;;;;;;;;4982466;28;20190;-90
2022/11/23 02:18:20;;;;;;;17.17;5.90;;;;;;;;;;4958651;28;20174;-89
2022/11/23 02:20:47;;;;;;;13.27;5.77;;;;;;;;;;4977971;28;20212;-89
2022/11/23 02:23:16;;;;;;;16.30;5.93;;;;;;;;;;4981554;28;20285;-90
2022/11/23 02:25:45;;;;;;;14.50;5.73;;;;;;;;;;4981984;28;20182;-89
2022/11/23 02:28:13;;;;;;;13.50;5.43;;;;;;;;;;4980385;28;20206;-89
2022/11/23 02:30:42;;;;;;;12.20;5.43;;;;;;;;;;4977741;28;20178;-89
2022/11/23 02:33:08;;;;;;;12.67;4.93;;;;;;;;;;4977633;28;20182;-89
2022/11/23 02:35:34;;;;;;;14.23;5.10;;;;;;;;;;4977390;28;20252;-89
2022/11/23 02:38:10;;;;;;;13.83;5.43;;;;;;;;;;4977530;28;20186;-89
2022/11/23 02:40:39;;;;;;;13.83;5.07;;;;;;;;;;4977489;28;20259;-89
2022/11/23 02:43:05;;;;;;;15.80;4.83;;;;;;;;;;4958305;28;20203;-89
2022/11/23 02:45:37;;;;;;;13.97;5.23;;;;;;;;;;4983257;28;20174;-89
2022/11/23 02:48:03;;;;;;;12.30;4.53;;;;;;;;;;4977146;28;20216;-89
2022/11/23 02:50:30;;;;;;;11.40;4.40;;;;;;;;;;4976907;28;20189;-89
2022/11/23 02:52:56;;;;;;;14.30;4.70;;;;;;;;;;4977020;28;20252;-89
2022/11/23 02:55:25;;;;;;;15.60;5.17;;;;;;;;;;4976849;28;20269;-88
2022/11/23 02:57:51;;;;;;;12.93;4.80;;;;;;;;;;4961396;28;20197;-89
2022/11/23 03:00:17;;;;;;;9.70;4.37;;;;;;;;;;4976842;28;20193;-89
2022/11/23 03:02:46;;;;;;;13.70;5.07;;;;;;;;;;4991498;28;20182;-88
2022/11/23 03:05:12;;;;;;;9.63;4.33;;;;;;;;;;4977150;28;20360;-89
2022/11/23 03:07:38;;;;;;;14.90;4.33;;;;;;;;;;4977078;28;20232;-89
2022/11/23 03:10:05;;;;;;;12.50;4.60;;;;;;;;;;4970714;28;20193;-90
2022/11/23 03:12:34;;;;;;;13.37;4.93;;;;;;;;;;4974254;28;20265;-88
2022/11/23 03:15:00;;;;;;;9.93;4.17;;;;;;;;;;4990777;28;20277;-89
2022/11/23 03:17:34;;;;;;;9.00;4.37;;;;;;;;;;5007849;28;20200;-90
2022/11/23 03:20:00;;;;;;;13.93;3.90;;;;;;;;;;4965424;28;20179;-89
2022/11/23 03:22:28;;;;;;;13.10;4.43;;;;;;;;;;4962800;28;20197;-89
2022/11/23 03:24:56;;;;;;;11.47;4.13;;;;;;;;;;4998690;28;20194;-89
2022/11/23 03:27:24;;;;;;;10.80;4.40;;;;;;;;;;4979991;28;20285;-89
2022/11/23 03:29:53;;;;;;;14.23;4.20;;;;;;;;;;4989977;28;20174;-89
2022/11/23 03:32:19;;;;;;;12.80;3.97;;;;;;;;;;4980711;28;20181;-89
2022/11/23 03:34:45;;;;;;;12.17;4.60;;;;;;;;;;4983549;28;20175;-89
2022/11/23 03:37:14;;;;;;;15.10;4.30;;;;;;;;;;4976501;28;20182;-89
2022/11/23 03:39:42;;;;;;;13.17;4.00;;;;;;;;;;4980479;28;20206;-90
2022/11/23 03:42:08;;;;;;;12.77;4.20;;;;;;;;;;4980134;28;20178;-89
2022/11/23 03:44:39;;;;;;;12.30;4.10;;;;;;;;;;4976968;28;20191;-89
2022/11/23 03:47:05;;;;;;;13.50;3.87;;;;;;;;;;4965765;28;20205;-89
2022/11/23 03:49:31;;;;;;;12.57;3.83;;;;;;;;;;4979927;28;20177;-89
2022/11/23 03:52:00;;;;;;;17.67;4.13;;;;;;;;;;4980331;28;20182;-89
2022/11/23 03:54:29;;;;;;;16.93;3.77;;;;;;;;;;4979875;28;20217;-89
2022/11/23 03:56:58;;;;;;;15.97;4.17;;;;;;;;;;4980372;28;20269;-89
2022/11/23 03:59:24;;;;;;;9.17;3.57;;;;;;;;;;4980055;28;20206;-90
2022/11/23 04:01:50;;;;;;;11.93;3.80;;;;;;;;;;4980361;28;20189;-89
2022/11/23 04:04:20;;;;;;;16.03;4.33;;;;;;;;;;4979718;28;20264;-89
2022/11/23 04:06:46;;;;;;;12.07;3.90;;;;;;;;;;4979592;28;20194;-90
2022/11/23 04:09:12;;;;;;;9.27;3.67;;;;;;;;;;4979767;28;20174;-89
2022/11/23 04:11:38;;;;;;;14.00;3.80;;;;;;;;;;4979645;28;20186;-89
2022/11/23 04:14:06;;;;;;;13.70;3.73;;;;;;;;;;4980317;28;20188;-89
2022/11/23 04:16:32;;;;;;;14.17;4.00;;;;;;;;;;4979425;28;20190;-89
2022/11/23 04:18:58;;;;;;;14.30;4.17;;;;;;;;;;4979583;28;20186;-89
2022/11/23 04:21:27;;;;;;;13.90;4.47;;;;;;;;;;4979790;28;20178;-89
2022/11/23 04:23:53;;;;;;;13.37;4.63;;;;;;;;;;4979359;28;20174;-90
2022/11/23 04:26:19;;;;;;;14.70;4.67;;;;;;;;;;4979325;28;20260;-89
2022/11/23 04:28:45;;;;;;;16.20;4.87;;;;;;;;;;4979274;28;20178;-89
2022/11/23 04:31:11;;;;;;;11.30;4.73;;;;;;;;;;4979650;28;20213;-89
2022/11/23 04:33:37;;;;;;;12.00;4.67;;;;;;;;;;4979305;28;20232;-89
2022/11/23 04:36:03;;;;;;;17.10;5.13;;;;;;;;;;4979568;28;20221;-89
2022/11/23 04:38:29;;;;;;;14.10;4.20;;;;;;;;;;4979172;28;20269;-89
2022/11/23 04:40:58;;;;;;;15.47;4.27;;;;;;;;;;4978342;28;20229;-90
2022/11/23 04:43:24;;;;;;;14.83;4.27;;;;;;;;;;4979351;28;20174;-90
2022/11/23 04:45:50;;;;;;;15.73;4.57;;;;;;;;;;4979101;28;20190;-90
2022/11/23 04:48:16;;;;;;;14.67;4.03;;;;;;;;;;4978934;28;20228;-88
2022/11/23 04:50:45;;;;;;;15.90;4.87;;;;;;;;;;4979021;28;20182;-89
2022/11/23 04:53:11;;;;;;;13.63;4.27;;;;;;;;;;4979470;28;20186;-89
2022/11/23 04:55:37;;;;;;;12.43;4.03;;;;;;;;;;4979242;28;20182;-89
2022/11/23 04:58:03;;;;;;;17.27;4.70;;;;;;;;;;4978919;28;20185;-90
2022/11/23 05:00:31;;;;;;;18.53;4.60;;;;;;;;;;4979367;28;20189;-90
2022/11/23 05:03:01;;;;;;;13.67;4.60;;;;;;;;;;4979063;28;20186;-89
2022/11/23 05:05:29;;;;;;;14.70;4.23;;;;;;;;;;4975348;28;20302;-89
2022/11/23 05:07:57;;;;;;;12.00;4.10;;;;;;;;;;4959226;28;20218;-89
2022/11/23 05:10:23;;;;;;;13.57;4.10;;;;;;;;;;4975823;28;20229;-90
2022/11/23 05:12:51;;;;;;;15.33;4.50;;;;;;;;;;4975736;28;20182;-89
2022/11/23 05:15:17;;;;;;;13.63;4.47;;;;;;;;;;4984222;28;20182;-89
2022/11/23 05:17:43;;;;;;;15.83;4.23;;;;;;;;;;4978881;28;20187;-89
2022/11/23 05:20:12;;;;;;;19.50;4.13;;;;;;;;;;4975965;28;20198;-89
2022/11/23 05:22:38;;;;;;;15.30;3.80;;;;;;;;;;4963268;28;20178;-89
2022/11/23 05:25:07;;;;;;;13.80;4.30;;;;;;;;;;4970164;28;20187;-89
2022/11/23 05:27:36;;;;;;;16.63;4.20;;;;;;;;;;4991067;28;20257;-89
2022/11/23 05:30:02;;;;;;;10.63;3.40;;;;;;;;;;4974891;28;20186;-88
2022/11/23 05:32:28;;;;;;;13.17;3.93;;;;;;;;;;4974509;28;20175;-89
2022/11/23 05:34:57;;;;;;;14.83;4.00;;;;;;;;;;4964457;28;20187;-89
2022/11/23 05:37:23;;;;;;;15.23;3.67;;;;;;;;;;4988923;28;20219;-90
2022/11/23 05:39:49;;;;;;;13.07;3.87;;;;;;;;;;4990286;28;20203;-89
2022/11/23 05:42:15;;;;;;;18.73;4.00;;;;;;;;;;4974837;28;20209;-89
2022/11/23 05:44:44;;;;;;;12.20;3.30;;;;;;;;;;4974787;28;20178;-89
2022/11/23 05:47:10;;;;;;;12.10;3.50;;;;;;;;;;4974547;28;20207;-89
2022/11/23 05:57:14;;;;;;;12.13;4.13;;;;;;;;;;4991461;28;20187;-78
2022/11/23 05:59:40;;;;;;;14.93;3.50;;;;;;;;;;5009848;28;20188;-78
2022/11/23 06:02:06;;;;;;;16.77;4.30;;;;;;;;;;5014548;28;20208;-78
2022/11/23 06:04:32;;;;;;;14.17;4.47;;;;;;;;;;5014635;28;20185;-79
2022/11/23 06:06:59;;;;;;;12.67;4.20;;;;;;;;;;4997126;28;20244;-79
2022/11/23 06:09:26;;;;;;;13.93;3.87;;;;;;;;;;4997207;28;20254;-79
2022/11/23 06:11:52;;;;;;;9.33;4.00;;;;;;;;;;5013347;28;20193;-78
2022/11/23 06:14:18;;;;;;;13.53;4.10;;;;;;;;;;4997095;28;20240;-78
2022/11/23 06:16:44;;;;;;;18.70;4.43;;;;;;;;;;5013773;28;20185;-78
2022/11/23 06:19:10;;;;;;;12.70;4.30;;;;;;;;;;4977670;28;20214;-78
2022/11/23 06:21:36;;;;;;;15.30;4.10;;;;;;;;;;4993457;28;20204;-78
2022/11/23 06:24:02;;;;;;;14.13;4.33;;;;;;;;;;4980776;28;20235;-78
2022/11/23 06:26:28;;;;;;;18.10;4.80;;;;;;;;;;4996963;28;20267;-78
2022/11/23 06:28:54;;;;;;;17.10;4.30;;;;;;;;;;4997064;28;20185;-79
2022/11/23 06:31:21;;;;;;;17.07;4.00;;;;;;;;;;4976859;28;20200;-79
2022/11/23 06:33:47;;;;;;;13.23;4.00;;;;;;;;;;4983967;28;20185;-79
2022/11/23 06:36:14;;;;;;;14.77;4.10;;;;;;;;;;5003479;28;20275;-80
2022/11/23 06:38:40;;;;;;;15.53;4.17;;;;;;;;;;4987868;28;20244;-80
2022/11/23 06:41:06;;;;;;;21.90;4.43;;;;;;;;;;4978345;28;20233;-80
2022/11/23 06:43:32;;;;;;;25.90;4.77;;;;;;;;;;5013534;28;20189;-80
2022/11/23 06:45:58;;;;;;;15.43;4.77;;;;;;;;;;4996938;28;20173;-83
2022/11/23 06:48:24;;;;;;;18.27;4.40;;;;;;;;;;4996809;28;20221;-83
2022/11/23 06:50:50;;;;;;;16.77;4.63;;;;;;;;;;4997010;28;20177;-83
2022/11/23 06:53:16;;;;;;;19.07;4.13;;;;;;;;;;4996292;28;20237;-83
2022/11/23 06:55:42;;;;;;;16.13;4.10;;;;;;;;;;4996696;28;20174;-83
2022/11/23 06:58:09;;;;;;;18.80;4.10;;;;;;;;;;4996919;28;20182;-83
2022/11/23 07:00:35;;;;;;;17.53;3.87;;;;;;;;;;5014232;28;20184;-83
2022/11/23 07:03:01;;;;;;;16.50;4.07;;;;;;;;;;4997490;28;20182;-78
2022/11/23 07:05:27;;;;;;;20.30;4.40;;;;;;;;;;5000585;28;20244;-78
2022/11/23 07:07:53;;;;;;;14.83;4.17;;;;;;;;;;4984256;28;20308;-78
2022/11/23 07:10:19;;;;;;;18.77;4.27;;;;;;;;;;5000657;28;20177;-78
2022/11/23 07:12:46;;;;;;;17.40;4.17;;;;;;;;;;5017794;28;20181;-78
2022/11/23 07:15:12;;;;;;;17.03;4.20;;;;;;;;;;5017852;28;20200;-78
2022/11/23 07:17:43;;;;;;;17.03;3.93;;;;;;;;;;5000532;28;20275;-79
2022/11/23 07:20:09;;;;;;;9.70;3.73;;;;;;;;;;5000832;28;20277;-83
2022/11/23 07:22:36;;;;;;;19.83;4.00;;;;;;;;;;5000593;28;20205;-83
2022/11/23 07:25:02;;;;;;;18.33;4.33;;;;;;;;;;5000212;28;20192;-83
2022/11/23 07:27:28;;;;;;;16.97;4.23;;;;;;;;;;5017547;28;20227;-83
2022/11/23 07:29:54;;;;;;;17.17;3.83;;;;;;;;;;4999838;28;20177;-83
2022/11/23 07:32:20;;;;;;;14.43;3.63;;;;;;;;;;4984160;28;20248;-83
2022/11/23 07:34:46;;;;;;;18.70;3.90;;;;;;;;;;5017382;28;20180;-79
2022/11/23 07:37:12;;;;;;;16.63;3.80;;;;;;;;;;5000301;28;20324;-79
2022/11/23 07:39:38;;;;;;;20.90;4.60;;;;;;;;;;5000036;28;20182;-79
2022/11/23 07:42:04;;;;;;;17.23;4.20;;;;;;;;;;5000408;28;20186;-80
2022/11/23 07:44:30;;;;;;;19.17;4.33;;;;;;;;;;5017104;28;20296;-80
2022/11/23 07:46:56;;;;;;;19.67;3.90;;;;;;;;;;4999600;28;20331;-83
2022/11/23 07:49:22;;;;;;;12.80;4.00;;;;;;;;;;4983686;28;20264;-83
2022/11/23 07:51:48;;;;;;;18.00;4.43;;;;;;;;;;4983710;28;20276;-83
2022/11/23 07:54:15;;;;;;;14.83;3.53;;;;;;;;;;4983469;28;20221;-83
2022/11/23 07:56:41;;;;;;;14.23;3.90;;;;;;;;;;4983983;28;20190;-83
2022/11/23 07:59:07;;;;;;;17.93;4.00;;;;;;;;;;4983587;28;20232;-83
2022/11/23 08:01:33;;;;;;;16.43;3.93;;;;;;;;;;4999842;28;20180;-80
2022/11/23 08:03:59;;;;;;;18.83;4.20;;;;;;;;;;4983435;28;20184;-80
2022/11/23 08:06:24;;;;;;;21.00;4.50;;;;;;;;;;4999827;28;20192;-80
2022/11/23 08:08:50;;;;;;;17.13;4.33;;;;;;;;;;4999541;28;20256;-78
2022/11/23 08:11:18;;;;;;;15.57;4.07;;;;;;;;;;4999338;28;20185;-79
2022/11/23 08:13:44;;;;;;;17.07;4.07;;;;;;;;;;4983474;28;20192;-78
2022/11/23 08:16:10;;;;;;;21.70;4.40;;;;;;;;;;4999577;28;20174;-78
2022/11/23 08:18:36;;;;;;;21.20;4.20;;;;;;;;;;4999331;28;20177;-78
2022/11/23 08:21:02;;;;;;;15.73;4.30;;;;;;;;;;4999057;28;20181;-83
2022/11/23 08:23:28;;;;;;;16.77;4.33;;;;;;;;;;4983489;28;20185;-80
2022/11/23 08:25:55;;;;;;;16.00;4.30;;;;;;;;;;4999291;28;20215;-78
2022/11/23 08:28:21;;;;;;;17.00;4.47;;;;;;;;;;4999004;28;20209;-79
2022/11/23 08:30:47;;;;;;;15.67;3.90;;;;;;;;;;4999194;28;20231;-78
2022/11/23 08:33:13;;;;;;;24.03;4.57;;;;;;;;;;4982852;28;20244;-78
2022/11/23 08:35:40;;;;;;;15.67;3.90;;;;;;;;;;4998895;28;20337;-78
2022/11/23 08:38:07;;;;;;;15.50;4.30;;;;;;;;;;4999006;28;20224;-79
2022/11/23 08:40:33;;;;;;;16.77;4.10;;;;;;;;;;4998754;28;20209;-78
2022/11/23 08:42:59;;;;;;;18.87;4.23;;;;;;;;;;5015978;28;20192;-83
2022/11/23 08:45:25;;;;;;;19.20;4.10;;;;;;;;;;5015727;28;20173;-83
2022/11/23 08:47:52;;;;;;;13.07;3.57;;;;;;;;;;4998365;28;20209;-83
2022/11/23 08:50:18;;;;;;;18.17;4.40;;;;;;;;;;4982269;28;20197;-83
2022/11/23 08:52:44;;;;;;;13.00;4.03;;;;;;;;;;5015548;28;20260;-83
2022/11/23 08:55:10;;;;;;;15.70;3.50;;;;;;;;;;4998222;28;20190;-83
2022/11/23 08:57:36;;;;;;;19.27;3.73;;;;;;;;;;5015404;28;20264;-83
2022/11/23 09:00:03;;;;;;;10.07;3.50;;;;;;;;;;4998432;28;20216;-83
2022/11/23 09:02:29;;;;;;;15.63;4.20;;;;;;;;;;4998298;28;20239;-79
2022/11/23 09:04:55;;;;;;;16.53;4.33;;;;;;;;;;4998168;28;20185;-83
2022/11/23 09:07:21;;;;;;;16.33;3.83;;;;;;;;;;4997896;28;20216;-84
2022/11/23 09:09:47;;;;;;;12.23;3.60;;;;;;;;;;4981822;28;20197;-84
2022/11/23 09:12:13;;;;;;;16.60;3.87;;;;;;;;;;4981868;28;20213;-81
2022/11/23 09:14:39;;;;;;;9.33;3.43;;;;;;;;;;4997975;28;20228;-79
2022/11/23 09:17:05;;;;;;;8.90;2.87;;;;;;;;;;4997914;28;20193;-79
2022/11/23 09:19:31;;;;;;;12.57;3.53;;;;;;;;;;4997582;28;20220;-79
2022/11/23 09:21:57;;;;;;;9.80;3.20;;;;;;;;;;4997915;28;20217;-79
2022/11/23 09:24:24;;;;;;;15.07;3.70;;;;;;;;;;4981557;28;20186;-79
2022/11/23 09:26:50;;;;;;;11.80;3.17;;;;;;;;;;5014482;28;20276;-79
2022/11/23 09:29:16;;;;;;;13.10;3.17;;;;;;;;;;4997894;28;20181;-79
2022/11/23 09:31:42;;;;;;;11.80;3.50;;;;;;;;;;5015110;28;20310;-84
2022/11/23 09:34:11;;;;;;;9.63;3.50;;;;;;;;;;4981604;28;20191;-84
2022/11/23 09:36:37;;;;;;;8.90;3.00;;;;;;;;;;4997002;28;20178;-84
2022/11/23 09:39:03;;;;;;;8.80;2.93;;;;;;;;;;4996397;28;20188;-84
2022/11/23 09:41:40;;;;;;;10.60;3.20;;;;;;;;;;4997380;28;20239;-84
2022/11/23 09:44:06;;;;;;;10.63;2.90;;;;;;;;;;5015382;28;20185;-81
2022/11/23 09:46:53;;;;;;;14.10;3.57;;;;;;;;;;4996667;28;20213;-80
2022/11/23 09:49:20;;;;;;;9.17;3.07;;;;;;;;;;4997291;28;20177;-81
2022/11/23 09:51:47;;;;;;;9.60;3.13;;;;;;;;;;4997154;28;20180;-81
2022/11/23 09:54:19;;;;;;;9.60;2.90;;;;;;;;;;4997156;28;20233;-81
2022/11/23 09:56:48;;;;;;;12.37;3.17;;;;;;;;;;5014685;28;20177;-81
2022/11/23 09:59:23;;;;;;;13.50;3.43;;;;;;;;;;4997224;28;20177;-81
2022/11/23 10:01:49;;;;;;;10.60;2.83;;;;;;;;;;4996950;28;20189;-80
2022/11/23 10:04:17;;;;;;;12.73;3.10;;;;;;;;;;4980846;28;20196;-80
2022/11/23 10:06:43;;;;;;;9.50;2.80;;;;;;;;;;4996927;28;20292;-81
2022/11/23 10:09:18;;;;;;;9.30;2.90;;;;;;;;;;4981002;28;20192;-81
2022/11/23 10:12:03;;;;;;;13.63;3.43;;;;;;;;;;4996859;28;20177;-80
2022/11/23 10:14:47;;;;;;;11.90;3.30;;;;;;;;;;5014219;28;20166;-81
2022/11/23 10:17:22;;;;;;;11.40;2.90;;;;;;;;;;4996749;28;20177;-81
2022/11/23 10:19:51;;;;;;;8.73;3.13;;;;;;;;;;4996900;28;20181;-80
2022/11/23 10:22:24;;;;;;;10.25;3.30;;;;;;;;;;4996761;28;20430;-80
2022/11/23 10:24:52;;;;;;;10.37;3.50;;;;;;;;;;4996775;28;20215;-80
2022/11/23 10:27:19;;;;;;;10.63;2.90;;;;;;;;;;4996610;28;20312;-80
2022/11/23 10:29:45;;;;;;;11.70;3.20;;;;;;;;;;5014518;28;20177;-80
2022/11/23 10:32:21;;;;;;;12.37;3.07;;;;;;;;;;4996483;28;20174;-80
2022/11/23 10:34:47;;;;;;;12.77;3.38;;;;;;;;;;5013782;28;20395;-80
2022/11/23 10:37:14;;;;;;;8.20;2.47;;;;;;;;;;4996415;28;20280;-80
2022/11/23 10:39:40;;;;;;;10.13;3.13;;;;;;;;;;5017446;28;20215;-83
2022/11/23 10:42:16;;;;;;;8.83;3.00;;;;;;;;;;4984460;28;20228;-83
2022/11/23 10:44:43;;;;;;;9.63;2.67;;;;;;;;;;5017980;28;20249;-84
2022/11/23 10:47:09;;;;;;;9.70;2.70;;;;;;;;;;4984379;28;20213;-82
2022/11/23 10:49:35;;;;;;;10.53;2.80;;;;;;;;;;4985021;28;20192;-80
2022/11/23 10:52:04;;;;;;;10.40;2.93;;;;;;;;;;5000777;28;20169;-80
2022/11/23 10:54:33;;;;;;;10.37;2.80;;;;;;;;;;5001028;28;20332;-83
2022/11/23 10:57:00;;;;;;;9.53;2.80;;;;;;;;;;5000824;28;20192;-83
2022/11/23 10:59:27;;;;;;;10.33;2.67;;;;;;;;;;5001339;28;20181;-83
2022/11/23 11:02:13;;;;;;;8.80;2.43;;;;;;;;;;5018268;28;20177;-83
2022/11/23 11:04:39;;;;;;;8.00;2.57;;;;;;;;;;5000483;28;20264;-83
2022/11/23 11:07:26;;;;;;;10.35;2.97;;;;;;;;;;4999992;28;20522;-83
2022/11/23 11:09:53;;;;;;;11.13;2.90;;;;;;;;;;5017986;28;20173;-80
2022/11/23 11:12:19;;;;;;;9.47;2.73;;;;;;;;;;5000966;28;20202;-83
2022/11/23 11:15:14;;;;;;;11.10;2.50;;;;;;;;;;5000682;28;20176;-83
2022/11/23 11:17:40;;;;;;;11.87;2.90;;;;;;;;;;5000395;28;20173;-80
2022/11/23 11:20:24;;;;;;;8.90;2.30;;;;;;;;;;5018000;28;20173;-80
2022/11/23 11:22:51;;;;;;;11.87;2.50;;;;;;;;;;5017707;28;20177;-79
2022/11/23 11:25:29;;;;;;;7.67;2.50;;;;;;;;;;5001015;28;20217;-78
2022/11/23 11:27:55;;;;;;;11.63;2.70;;;;;;;;;;5017838;28;20200;-79
2022/11/23 11:30:27;;;;;;;11.53;3.00;;;;;;;;;;5000166;28;20184;-79
2022/11/23 11:32:56;;;;;;;10.57;2.63;;;;;;;;;;5000146;28;20204;-79
2022/11/23 11:35:34;;;;;;;9.23;2.90;;;;;;;;;;5000369;28;20231;-79
2022/11/23 11:38:02;;;;;;;7.50;2.23;;;;;;;;;;5000249;28;20181;-79
2022/11/23 11:41:03;;;;;;;11.17;2.63;;;;;;;;;;5000776;28;20268;-79
2022/11/23 11:43:32;;;;;;;10.03;2.50;;;;;;;;;;4922125;29;20187;-79
2022/11/23 11:46:01;;;;;;;8.80;2.60;;;;;;;;;;4985954;28;20201;-79
2022/11/23 11:48:33;;;;;;;9.47;2.47;;;;;;;;;;5016977;28;20209;-78
2022/11/23 11:51:10;;;;;;;9.47;2.23;;;;;;;;;;4999760;28;20183;-79
2022/11/23 11:53:40;;;;;;;7.97;2.40;;;;;;;;;;4999558;28;20244;-80
2022/11/23 11:56:11;;;;;;;8.13;2.33;;;;;;;;;;5000153;28;20223;-80
2022/11/23 11:58:37;;;;;;;8.40;2.23;;;;;;;;;;5017071;28;20179;-80
2022/11/23 12:01:18;;;;;;;7.47;2.40;;;;;;;;;;5000040;28;20194;-80
2022/11/23 12:03:51;;;;;;;10.47;2.87;;;;;;;;;;4999400;28;20220;-80
2022/11/23 12:06:23;;;;;;;8.97;2.40;;;;;;;;;;4999739;28;20197;-80
2022/11/23 12:08:59;;;;;;;7.47;2.40;;;;;;;;;;5016810;28;20268;-80
2022/11/23 12:11:25;;;;;;;8.23;2.40;;;;;;;;;;4999436;28;20177;-80
2022/11/23 12:13:54;;;;;;;9.77;2.60;;;;;;;;;;4999457;28;20177;-83
2022/11/23 12:16:39;;;;;;;8.77;2.50;;;;;;;;;;4999239;28;20173;-82
2022/11/23 12:19:14;;;;;;;9.07;2.17;;;;;;;;;;5016533;28;20181;-79
2022/11/23 12:21:46;;;;;;;7.57;2.70;;;;;;;;;;5016363;28;20234;-79
2022/11/23 12:24:20;;;;;;;8.47;2.67;;;;;;;;;;4999325;28;20204;-79
2022/11/23 12:26:54;;;;;;;6.57;2.10;;;;;;;;;;4999008;28;20208;-79
2022/11/23 12:29:21;;;;;;;11.37;2.40;;;;;;;;;;4999026;28;20272;-79
2022/11/23 12:31:52;;;;;;;7.37;2.27;;;;;;;;;;5016230;28;20173;-79
2022/11/23 12:34:21;;;;;;;7.83;2.53;;;;;;;;;;4998770;28;20248;-79
2022/11/23 12:36:47;;;;;;;10.00;2.10;;;;;;;;;;4998956;28;20188;-79
2022/11/23 12:39:19;;;;;;;7.47;2.20;;;;;;;;;;4999015;28;20181;-78
2022/11/23 12:42:07;;;;;;;5.50;2.10;;;;;;;;;;5016212;28;20174;-78
2022/11/23 12:44:48;;;;;;;9.73;2.20;;;;;;;;;;4998648;28;20271;-78
2022/11/23 12:47:14;;;;;;;10.80;2.00;;;;;;;;;;5016034;28;20204;-78
2022/11/23 12:49:40;;;;;;;8.80;1.90;;;;;;;;;;5015886;28;20219;-78
2022/11/23 12:52:09;;;;;;;8.17;1.77;;;;;;;;;;4998566;28;20176;-80
2022/11/23 12:54:51;;;;;;;10.27;2.00;;;;;;;;;;5015648;28;20251;-80
2022/11/23 12:57:20;;;;;;;8.40;2.03;;;;;;;;;;4998383;28;20185;-80
2022/11/23 12:59:46;;;;;;;6.63;1.80;;;;;;;;;;4998457;28;20182;-80
2022/11/23 13:02:18;;;;;;;6.97;2.13;;;;;;;;;;5007748;23;20233;-81
2022/11/23 13:04:59;;;;;;;8.50;1.97;;;;;;;;;;4994715;28;20228;-81
2022/11/23 13:07:25;;;;;;;7.90;2.20;;;;;;;;;;4994607;28;20296;-82
2022/11/23 13:09:51;;;;;;;4.60;1.77;;;;;;;;;;4994494;28;20208;-80
2022/11/23 13:12:20;;;;;;;7.10;1.67;;;;;;;;;;4994427;28;20173;-80
2022/11/23 13:14:55;;;;;;;9.17;1.83;;;;;;;;;;4994549;28;20202;-80
2022/11/23 13:17:54;;;;;;;4.57;1.73;;;;;;;;;;4994544;28;20181;-80
2022/11/23 13:20:39;;;;;;;8.53;1.67;;;;;;;;;;4942582;28;20318;-79
2022/11/23 13:23:05;;;;;;;5.80;1.73;;;;;;;;;;4994352;28;20181;-80
2022/11/23 13:25:31;;;;;;;7.73;1.70;;;;;;;;;;4978292;28;20209;-80
2022/11/23 13:28:02;;;;;;;6.83;1.70;;;;;;;;;;4994074;28;20198;-80
2022/11/23 13:30:33;;;;;;;8.57;1.97;;;;;;;;;;4994093;28;20235;-80
2022/11/23 13:33:17;;;;;;;5.93;1.73;;;;;;;;;;4994131;28;20166;-80
2022/11/23 13:35:43;;;;;;;8.77;1.93;;;;;;;;;;4994541;28;20184;-81
2022/11/23 13:38:15;;;;;;;5.83;1.87;;;;;;;;;;4994007;28;20277;-81
2022/11/23 13:40:42;;;;;;;7.77;1.70;;;;;;;;;;4994000;28;20178;-81
2022/11/23 13:43:08;;;;;;;7.73;1.83;;;;;;;;;;4978152;28;20179;-82
2022/11/23 13:45:38;;;;;;;9.63;2.10;;;;;;;;;;4993976;28;20185;-82
2022/11/23 13:48:10;;;;;;;8.87;1.97;;;;;;;;;;4993814;28;20277;-83
2022/11/23 13:50:38;;;;;;;6.50;1.80;;;;;;;;;;4978181;28;20233;-81
2022/11/23 13:53:18;;;;;;;9.37;1.97;;;;;;;;;;4993924;28;20265;-80
2022/11/23 13:55:44;;;;;;;9.33;1.90;;;;;;;;;;4994901;28;20174;-80
2022/11/23 13:58:23;;;;;;;9.73;2.20;;;;;;;;;;4977783;28;20193;-83
2022/11/23 14:00:49;;;;;;;4.77;1.60;;;;;;;;;;4993759;28;20192;-83
2022/11/23 14:03:44;;;;;;;5.80;1.90;;;;;;;;;;4993376;28;20229;-83
2022/11/23 14:06:22;;;;;;;6.87;1.70;;;;;;;;;;4991083;28;20186;-83
2022/11/23 14:08:57;;;;;;;7.13;2.20;;;;;;;;;;4993629;28;20218;-83
2022/11/23 14:11:24;;;;;;;11.30;2.20;;;;;;;;;;4993421;28;20188;-83
2022/11/23 14:13:56;;;;;;;6.40;1.90;;;;;;;;;;4994564;28;20209;-83
2022/11/23 14:16:41;;;;;;;8.93;2.00;;;;;;;;;;4993368;28;20178;-83
2022/11/23 14:19:26;;;;;;;6.07;1.67;;;;;;;;;;4993605;28;20269;-83
2022/11/23 14:22:03;;;;;;;6.80;1.80;;;;;;;;;;5009772;28;20170;-83
2022/11/23 14:24:37;;;;;;;5.23;1.67;;;;;;;;;;5009831;28;20170;-83
2022/11/23 14:27:15;;;;;;;5.57;1.80;;;;;;;;;;5009813;28;20209;-83
2022/11/23 14:30:02;;;;;;;5.07;1.70;;;;;;;;;;4994539;28;20204;-83
2022/11/23 14:32:47;;;;;;;5.63;1.80;;;;;;;;;;5009964;28;20178;-80
2022/11/23 14:35:25;;;;;;;4.60;1.50;;;;;;;;;;5010028;28;20265;-80
2022/11/23 14:38:12;;;;;;;5.40;1.70;;;;;;;;;;5009731;28;20220;-81
2022/11/23 14:40:52;;;;;;;3.57;1.60;;;;;;;;;;5009309;28;20186;-80
2022/11/23 14:43:19;;;;;;;4.73;1.70;;;;;;;;;;5009659;28;20181;-80
2022/11/23 14:45:46;;;;;;;6.43;1.80;;;;;;;;;;4993365;28;20196;-81
2022/11/23 14:48:22;;;;;;;6.35;1.85;;;;;;;;;;4992972;28;20432;-82
2022/11/23 14:50:55;;;;;;;6.55;1.90;;;;;;;;;;4994306;28;20458;-82
2022/11/23 14:53:21;;;;;;;7.03;2.30;;;;;;;;;;4993003;28;20401;-81